Mount Clare, Nebraska
Current Conditions -  °F | °C
As of 9:53 PM on Friday 24 Oct 2014 (Local Time) from KHSI Reporting Station
Clear Clear  
Wind Chill: 57°   Ceiling: Unl
Heat Index: 57°   Visibility: 10mi
Dew Point: 46°   Wind: 0mph
Humidity: 67%   Direction: NA
Pressure: 30.02"   Gusts: NA
Location:  40.2635°N, 98.2176°W
Report Text: KHSI 250253Z AUTO 00000KT 10SM CLR 14/08 A3002 RMK AO2 SLP162 T01390078 51016
Loading
Personal Weather Stations






























Interactive Weather Map
Tropical Storm Tracking
New forecast layout! Learn more

10-Day Weather Forecast

Advertisements
Track Severe Weather on mobile